createdAt,value
2018-06-30T00:00:56.423Z,14.08
2018-06-30T00:01:57.798Z,14.06
2018-06-30T00:02:59.173Z,14.04
2018-06-30T00:04:00.562Z,13.93
2018-06-30T00:05:01.963Z,14.01
2018-06-30T00:06:03.340Z,13.96
2018-06-30T00:07:04.727Z,14.04
2018-06-30T00:08:06.122Z,14.01
2018-06-30T00:09:07.498Z,13.96
2018-06-30T00:10:08.885Z,14.04
2018-06-30T00:11:10.270Z,13.91
2018-06-30T00:12:11.649Z,14.09
2018-06-30T00:13:13.766Z,14.05
2018-06-30T00:14:15.161Z,14.05
2018-06-30T00:15:17.366Z,13.94
2018-06-30T00:16:18.752Z,14.04
2018-06-30T00:17:20.129Z,13.91
2018-06-30T00:18:21.525Z,14.01
2018-06-30T00:19:22.897Z,14.06
2018-06-30T00:20:24.282Z,14.05
2018-06-30T00:21:25.679Z,13.99
2018-06-30T00:22:27.059Z,13.98
2018-06-30T00:23:28.469Z,14.01
2018-06-30T00:24:29.849Z,13.94
2018-06-30T00:25:31.237Z,13.96
2018-06-30T00:26:32.618Z,13.99
2018-06-30T00:27:33.994Z,13.88
2018-06-30T00:28:35.396Z,13.93
2018-06-30T00:29:36.777Z,13.84
2018-06-30T00:30:38.152Z,13.90
2018-06-30T00:31:39.548Z,13.90
2018-06-30T00:32:40.927Z,13.88
2018-06-30T00:33:42.309Z,13.84
2018-06-30T00:34:44.604Z,13.86
2018-06-30T00:35:45.987Z,13.81
2018-06-30T00:36:47.378Z,13.75
2018-06-30T00:37:48.760Z,13.76
2018-06-30T00:38:50.137Z,13.76
2018-06-30T00:39:51.518Z,13.73
2018-06-30T00:40:52.915Z,13.73
2018-06-30T00:41:54.298Z,13.75
2018-06-30T00:42:55.674Z,13.76
2018-06-30T00:43:57.060Z,13.75
2018-06-30T00:44:58.441Z,13.73
2018-06-30T00:45:59.822Z,13.65
2018-06-30T00:47:01.217Z,13.68
2018-06-30T00:48:02.594Z,13.66
2018-06-30T00:49:03.995Z,13.68
2018-06-30T00:50:05.365Z,13.63
2018-06-30T00:51:06.750Z,13.62
2018-06-30T00:52:08.132Z,13.66
2018-06-30T00:53:09.513Z,13.61
2018-06-30T00:54:10.893Z,13.62
2018-06-30T00:55:12.272Z,13.68
2018-06-30T00:56:13.669Z,13.65
2018-06-30T00:57:15.055Z,13.63
2018-06-30T00:58:16.441Z,13.62
2018-06-30T00:59:18.669Z,13.68
2018-06-30T01:00:20.054Z,13.68
2018-06-30T01:01:21.463Z,13.65
2018-06-30T01:02:22.841Z,13.66
2018-06-30T01:03:24.228Z,13.63
2018-06-30T01:04:25.625Z,13.68
2018-06-30T01:05:27.564Z,13.65
2018-06-30T01:06:28.958Z,13.61
2018-06-30T01:07:30.339Z,13.62
2018-06-30T01:08:31.714Z,13.55
2018-06-30T01:09:33.092Z,13.57
2018-06-30T01:10:34.481Z,13.59
2018-06-30T01:11:35.866Z,13.54
2018-06-30T01:12:37.243Z,13.53
2018-06-30T01:13:38.645Z,13.50
2018-06-30T01:14:40.021Z,13.39
2018-06-30T01:15:41.407Z,13.46
2018-06-30T01:16:42.796Z,13.41
2018-06-30T01:17:44.174Z,13.43
2018-06-30T01:18:45.564Z,13.43
2018-06-30T01:19:46.954Z,13.38
2018-06-30T01:20:48.341Z,13.32
2018-06-30T01:21:49.737Z,13.43
2018-06-30T01:22:51.116Z,13.32
2018-06-30T01:23:52.496Z,13.36
2018-06-30T01:24:54.767Z,13.24
2018-06-30T01:25:56.153Z,13.27
2018-06-30T01:26:57.533Z,13.24
2018-06-30T01:27:58.919Z,13.28
2018-06-30T01:29:00.300Z,13.27
2018-06-30T01:30:01.693Z,13.28
2018-06-30T01:31:03.075Z,13.22
2018-06-30T01:32:04.461Z,13.16
2018-06-30T01:33:05.848Z,13.21
2018-06-30T01:34:07.235Z,13.14
2018-06-30T01:35:08.617Z,13.14
2018-06-30T01:36:10.005Z,13.19
2018-06-30T01:37:11.382Z,13.21
2018-06-30T01:38:12.767Z,13.21
2018-06-30T01:39:14.166Z,13.24
2018-06-30T01:40:15.536Z,13.21
2018-06-30T01:41:16.926Z,13.16
2018-06-30T01:42:18.313Z,13.17
2018-06-30T01:43:19.702Z,13.09
2018-06-30T01:44:21.082Z,13.06
2018-06-30T01:45:22.475Z,13.13
2018-06-30T01:46:23.856Z,13.14
2018-06-30T01:47:25.234Z,13.14
2018-06-30T01:48:26.622Z,13.14
2018-06-30T01:49:28.008Z,13.12
2018-06-30T01:50:29.426Z,13.17
2018-06-30T01:51:30.792Z,13.17
2018-06-30T01:52:32.175Z,13.03
2018-06-30T01:53:33.566Z,13.09
2018-06-30T01:54:34.947Z,13.21
2018-06-30T01:55:36.329Z,13.10
2018-06-30T01:56:37.717Z,13.12
2018-06-30T01:57:39.095Z,13.12
2018-06-30T01:58:40.477Z,13.04
2018-06-30T01:59:41.863Z,12.94
2018-06-30T02:00:43.245Z,13.01
2018-06-30T02:01:44.630Z,12.96
2018-06-30T02:02:46.012Z,12.92
2018-06-30T02:03:47.413Z,12.89
2018-06-30T02:04:48.793Z,12.79
2018-06-30T02:05:50.178Z,12.79
2018-06-30T02:06:51.564Z,12.84
2018-06-30T02:07:52.956Z,12.89
2018-06-30T02:08:54.337Z,12.79
2018-06-30T02:09:55.720Z,12.77
2018-06-30T02:10:57.090Z,12.85
2018-06-30T02:11:58.482Z,12.77
2018-06-30T02:12:59.863Z,12.80
2018-06-30T02:14:01.249Z,12.84
2018-06-30T02:15:02.633Z,12.84
2018-06-30T02:16:04.737Z,12.71
2018-06-30T02:17:06.129Z,12.84
2018-06-30T02:18:07.515Z,12.80
2018-06-30T02:19:08.889Z,12.80
2018-06-30T02:20:10.277Z,12.81
2018-06-30T02:21:11.729Z,12.77
2018-06-30T02:22:13.045Z,12.70
2018-06-30T02:23:14.429Z,12.62
2018-06-30T02:24:15.825Z,12.56
2018-06-30T02:25:17.221Z,12.62
2018-06-30T02:26:18.604Z,12.63
2018-06-30T02:27:19.983Z,12.66
2018-06-30T02:28:21.369Z,12.59
2018-06-30T02:29:22.752Z,12.67
2018-06-30T02:30:24.130Z,12.70
2018-06-30T02:31:25.528Z,12.74
2018-06-30T02:32:26.904Z,12.67
2018-06-30T02:33:28.305Z,12.63
2018-06-30T02:34:29.695Z,12.67
2018-06-30T02:35:31.080Z,12.71
2018-06-30T02:36:32.466Z,12.73
2018-06-30T02:37:33.852Z,12.74
2018-06-30T02:38:35.230Z,12.73
2018-06-30T02:39:36.620Z,12.77
2018-06-30T02:40:38.018Z,12.74
2018-06-30T02:41:39.394Z,12.71
2018-06-30T02:42:40.771Z,12.76
2018-06-30T02:43:42.155Z,12.73
2018-06-30T02:44:43.547Z,12.76
2018-06-30T02:45:44.927Z,12.77
2018-06-30T02:46:46.306Z,12.79
2018-06-30T02:47:47.697Z,12.73
2018-06-30T02:48:49.093Z,12.80
2018-06-30T02:49:50.476Z,12.84
2018-06-30T02:50:51.868Z,12.76
2018-06-30T02:51:53.250Z,12.69
2018-06-30T02:52:54.633Z,12.61
2018-06-30T02:53:56.024Z,12.74
2018-06-30T02:54:57.399Z,12.77
2018-06-30T02:55:58.802Z,12.74
2018-06-30T02:57:00.173Z,12.73
2018-06-30T02:58:01.560Z,12.71
2018-06-30T02:59:02.946Z,12.76
2018-06-30T03:00:04.330Z,12.85
2018-06-30T03:01:05.715Z,12.77
2018-06-30T03:02:07.104Z,12.73
2018-06-30T03:03:08.491Z,12.73
2018-06-30T03:04:09.875Z,12.74
2018-06-30T03:05:11.259Z,12.73
2018-06-30T03:06:12.659Z,12.79
2018-06-30T03:07:14.742Z,12.71
2018-06-30T03:08:16.120Z,12.73
2018-06-30T03:09:17.510Z,12.73
2018-06-30T03:10:18.904Z,12.76
2018-06-30T03:11:20.280Z,12.77
2018-06-30T03:12:21.683Z,12.71
2018-06-30T03:13:23.086Z,12.76
2018-06-30T03:14:24.477Z,12.84
2018-06-30T03:15:25.872Z,12.81
2018-06-30T03:16:27.269Z,12.74
2018-06-30T03:17:28.650Z,12.77
2018-06-30T03:18:30.051Z,12.80
2018-06-30T03:19:31.431Z,12.73
2018-06-30T03:20:32.825Z,12.92
2018-06-30T03:21:34.210Z,12.89
2018-06-30T03:22:35.596Z,12.89
2018-06-30T03:23:37.582Z,13.01
2018-06-30T03:24:39.801Z,13.01
2018-06-30T03:25:41.183Z,12.96
2018-06-30T03:26:42.567Z,13.01
2018-06-30T03:27:43.959Z,13.07
2018-06-30T03:28:45.299Z,13.07
2018-06-30T03:29:46.692Z,13.13
2018-06-30T03:30:48.090Z,13.16
2018-06-30T03:31:49.470Z,13.21
2018-06-30T03:32:50.857Z,13.27
2018-06-30T03:33:52.238Z,13.35
2018-06-30T03:34:53.636Z,13.41
2018-06-30T03:35:55.026Z,13.32
2018-06-30T03:36:56.417Z,13.36
2018-06-30T03:37:57.784Z,13.36
2018-06-30T03:38:59.175Z,13.36
2018-06-30T03:40:00.563Z,13.43
2018-06-30T03:41:01.953Z,13.35
2018-06-30T03:42:03.344Z,13.46
2018-06-30T03:43:04.717Z,13.53
2018-06-30T03:44:06.107Z,13.53
2018-06-30T03:45:07.493Z,13.55
2018-06-30T03:46:08.900Z,13.57
2018-06-30T03:47:10.233Z,13.65
2018-06-30T03:48:11.623Z,13.68
2018-06-30T03:49:13.015Z,13.66
2018-06-30T03:50:14.412Z,13.72
2018-06-30T03:51:15.785Z,13.90
2018-06-30T03:52:17.177Z,13.87
2018-06-30T03:53:18.569Z,13.81
2018-06-30T03:54:19.962Z,13.88
2018-06-30T03:55:21.356Z,14.01
2018-06-30T03:56:22.737Z,13.93
2018-06-30T03:57:24.136Z,13.91
2018-06-30T03:58:25.532Z,14.01
2018-06-30T03:59:26.916Z,14.06
2018-06-30T04:00:28.311Z,14.09
2018-06-30T04:01:29.692Z,14.21
2018-06-30T04:02:31.088Z,14.20
2018-06-30T04:03:32.470Z,14.23
2018-06-30T04:04:33.864Z,14.24
2018-06-30T04:05:35.254Z,14.34
2018-06-30T04:06:36.644Z,14.35
2018-06-30T04:07:38.034Z,14.42
2018-06-30T04:08:39.420Z,14.44
2018-06-30T04:09:40.809Z,14.52
2018-06-30T04:10:42.195Z,14.63
2018-06-30T04:11:43.578Z,14.66
2018-06-30T04:12:44.979Z,14.69
2018-06-30T04:13:46.365Z,14.74
2018-06-30T04:14:47.757Z,14.80
2018-06-30T04:15:49.143Z,14.83
2018-06-30T04:16:50.535Z,14.94
2018-06-30T04:17:51.917Z,14.86
2018-06-30T04:18:53.320Z,14.97
2018-06-30T04:19:54.701Z,14.95
2018-06-30T04:20:56.097Z,14.97
2018-06-30T04:21:57.555Z,15.03
2018-06-30T04:22:58.889Z,15.16
2018-06-30T04:24:00.279Z,15.13
2018-06-30T04:25:02.352Z,15.18
2018-06-30T04:26:03.746Z,15.22
2018-06-30T04:27:05.133Z,15.19
2018-06-30T04:28:06.522Z,15.23
2018-06-30T04:29:07.924Z,15.31
2018-06-30T04:30:09.317Z,15.34
2018-06-30T04:31:11.284Z,15.38
2018-06-30T04:32:12.674Z,15.49
2018-06-30T04:33:14.064Z,15.62
2018-06-30T04:34:15.462Z,15.70
2018-06-30T04:35:16.862Z,15.81
2018-06-30T04:36:18.248Z,15.89
2018-06-30T04:37:19.635Z,15.85
2018-06-30T04:38:21.038Z,15.96
2018-06-30T04:39:22.434Z,16.10
2018-06-30T04:40:23.831Z,16.16
2018-06-30T04:41:25.219Z,16.14
2018-06-30T04:42:26.619Z,16.27
2018-06-30T04:43:28.013Z,16.44
2018-06-30T04:44:29.408Z,16.48
2018-06-30T04:45:30.811Z,16.88
2018-06-30T04:46:32.192Z,16.98
2018-06-30T04:47:34.435Z,17.22
2018-06-30T04:48:35.833Z,17.27
2018-06-30T04:49:37.225Z,17.25
2018-06-30T04:50:38.613Z,17.43
2018-06-30T04:51:40.016Z,17.42
2018-06-30T04:52:41.407Z,17.53
2018-06-30T04:53:42.801Z,17.73
2018-06-30T04:54:44.188Z,17.95
2018-06-30T04:55:45.597Z,18.29
2018-06-30T04:56:47.772Z,18.51
2018-06-30T04:57:49.162Z,18.75
2018-06-30T04:58:50.548Z,19.05
2018-06-30T04:59:51.954Z,19.15
2018-06-30T05:00:53.340Z,19.17
2018-06-30T05:01:54.735Z,18.91
2018-06-30T05:02:56.119Z,19.02
2018-06-30T05:03:57.520Z,19.02
2018-06-30T05:04:58.920Z,18.94
2018-06-30T05:06:00.318Z,19.09
2018-06-30T05:07:01.711Z,18.90
2018-06-30T05:08:03.118Z,18.91
2018-06-30T05:09:04.515Z,19.06
2018-06-30T05:10:05.891Z,19.24
2018-06-30T05:11:07.293Z,19.57
2018-06-30T05:12:08.715Z,20.00
2018-06-30T05:13:10.127Z,20.25
2018-06-30T05:14:11.524Z,20.56
2018-06-30T05:15:12.926Z,20.66
2018-06-30T05:16:14.321Z,20.87
2018-06-30T05:17:15.717Z,20.82
2018-06-30T05:18:17.117Z,20.85
2018-06-30T05:19:18.516Z,20.87
2018-06-30T05:20:19.903Z,20.88
2018-06-30T05:21:21.296Z,20.90
2018-06-30T05:22:22.691Z,20.87
2018-06-30T05:23:24.090Z,20.56
2018-06-30T05:24:25.488Z,20.37
2018-06-30T05:25:26.888Z,20.53
2018-06-30T05:26:28.288Z,20.50
2018-06-30T05:27:29.704Z,20.23
2018-06-30T05:28:31.106Z,20.00
2018-06-30T05:29:32.506Z,19.86
2018-06-30T05:30:33.912Z,19.90
2018-06-30T05:31:35.318Z,19.75
2018-06-30T05:32:36.707Z,19.78
2018-06-30T05:33:38.792Z,19.70
2018-06-30T05:34:40.159Z,19.76
2018-06-30T05:35:41.563Z,19.87
2018-06-30T05:36:42.965Z,19.92
2018-06-30T05:37:44.371Z,19.95
2018-06-30T05:38:45.782Z,20.10
2018-06-30T05:39:47.179Z,20.17
2018-06-30T05:40:48.588Z,20.31
2018-06-30T05:41:49.993Z,20.61
2018-06-30T05:42:51.377Z,20.83
2018-06-30T05:43:52.785Z,20.81
2018-06-30T05:44:54.179Z,20.90
2018-06-30T05:45:55.608Z,21.09
2018-06-30T05:46:57.002Z,21.21
2018-06-30T05:47:58.399Z,21.48
2018-06-30T05:48:59.809Z,21.85
2018-06-30T05:50:01.223Z,21.93
2018-06-30T05:51:03.113Z,22.06
2018-06-30T05:52:04.510Z,22.29
2018-06-30T05:53:05.911Z,22.59
2018-06-30T05:54:07.315Z,22.93
2018-06-30T05:55:08.729Z,23.23
2018-06-30T05:56:10.126Z,23.49
2018-06-30T05:57:11.542Z,23.57
2018-06-30T05:58:12.962Z,23.47
2018-06-30T05:59:14.355Z,23.79
2018-06-30T06:00:15.761Z,23.89
2018-06-30T06:01:17.173Z,24.05
2018-06-30T06:02:18.568Z,23.99
2018-06-30T06:03:19.976Z,24.26
2018-06-30T06:04:21.382Z,24.04
2018-06-30T06:05:22.785Z,23.89
2018-06-30T06:06:24.175Z,24.18
2018-06-30T06:07:25.596Z,24.05
2018-06-30T06:08:27.007Z,24.09
2018-06-30T06:09:28.410Z,23.82
2018-06-30T06:10:29.817Z,23.87
2018-06-30T06:11:31.221Z,23.62
2018-06-30T06:12:32.639Z,23.64
2018-06-30T06:13:34.041Z,23.81
2018-06-30T06:14:35.448Z,23.75
2018-06-30T06:15:36.852Z,23.63
2018-06-30T06:16:38.254Z,23.84
2018-06-30T06:17:39.658Z,23.93
2018-06-30T06:18:41.083Z,24.27
2018-06-30T06:19:42.480Z,24.42
2018-06-30T06:20:43.885Z,24.52
2018-06-30T06:21:45.304Z,24.74
2018-06-30T06:22:46.726Z,24.70
2018-06-30T06:23:48.817Z,24.84
2018-06-30T06:24:50.221Z,24.99
2018-06-30T06:25:51.678Z,24.86
2018-06-30T06:26:53.037Z,25.07
2018-06-30T06:27:54.455Z,25.01
2018-06-30T06:28:55.853Z,24.89
2018-06-30T06:29:57.267Z,24.89
2018-06-30T06:30:58.673Z,24.89
2018-06-30T06:32:00.085Z,25.23
2018-06-30T06:33:01.512Z,25.27
2018-06-30T06:34:02.909Z,25.19
2018-06-30T06:35:04.319Z,25.31
2018-06-30T06:36:05.731Z,25.36
2018-06-30T06:37:07.131Z,25.34
2018-06-30T06:38:08.541Z,25.24
2018-06-30T06:39:09.952Z,25.35
2018-06-30T06:40:11.349Z,25.02
2018-06-30T06:41:12.756Z,24.90
2018-06-30T06:42:14.165Z,24.86
2018-06-30T06:43:15.575Z,24.90
2018-06-30T06:44:16.977Z,25.17
2018-06-30T06:45:18.391Z,25.20
2018-06-30T06:46:19.799Z,24.89
2018-06-30T06:47:21.196Z,24.61
2018-06-30T06:48:22.636Z,24.79
2018-06-30T06:49:24.014Z,24.87
2018-06-30T06:50:25.408Z,24.92
2018-06-30T06:51:26.817Z,25.07
2018-06-30T06:52:28.220Z,24.99
2018-06-30T06:53:29.630Z,25.12
2018-06-30T06:54:31.870Z,25.26
2018-06-30T06:55:33.289Z,25.44
2018-06-30T06:56:34.691Z,25.22
2018-06-30T06:57:36.085Z,25.35
2018-06-30T06:58:37.480Z,25.35
2018-06-30T06:59:38.897Z,25.34
2018-06-30T07:00:40.367Z,25.41
2018-06-30T07:01:41.713Z,25.27
2018-06-30T07:02:43.101Z,25.22
2018-06-30T07:03:44.524Z,25.14
2018-06-30T07:04:45.917Z,25.14
2018-06-30T07:05:47.320Z,25.05
2018-06-30T07:06:48.685Z,25.19
2018-06-30T07:07:50.584Z,25.24
2018-06-30T07:08:51.989Z,25.38
2018-06-30T07:09:53.396Z,25.35
2018-06-30T07:10:54.806Z,25.44
2018-06-30T07:11:56.205Z,25.53
2018-06-30T07:12:57.596Z,25.54
2018-06-30T07:13:59.010Z,25.31
2018-06-30T07:15:00.400Z,25.30
2018-06-30T07:16:01.815Z,25.26
2018-06-30T07:17:03.224Z,25.34
2018-06-30T07:18:04.619Z,25.20
2018-06-30T07:19:06.023Z,25.08
2018-06-30T07:20:07.422Z,24.99
2018-06-30T07:21:08.819Z,24.82
2018-06-30T07:22:10.223Z,24.44
2018-06-30T07:23:11.616Z,24.34
2018-06-30T07:24:13.022Z,24.09
2018-06-30T07:25:14.420Z,23.97
2018-06-30T07:26:15.932Z,23.92
2018-06-30T07:27:17.183Z,23.81
2018-06-30T07:28:18.584Z,23.63
2018-06-30T07:29:19.987Z,23.38
2018-06-30T07:30:21.392Z,23.45
2018-06-30T07:31:22.795Z,23.63
2018-06-30T07:32:24.184Z,23.74
2018-06-30T07:33:25.598Z,23.90
2018-06-30T07:34:26.997Z,24.00
2018-06-30T07:35:28.400Z,24.16
2018-06-30T07:36:29.803Z,24.33
2018-06-30T07:37:31.239Z,24.49
2018-06-30T07:38:32.628Z,24.46
2018-06-30T07:39:34.030Z,24.51
2018-06-30T07:40:35.464Z,24.53
2018-06-30T07:41:36.863Z,24.53
2018-06-30T07:42:38.255Z,24.70
2018-06-30T07:43:39.658Z,24.74
2018-06-30T07:44:41.205Z,24.66
2018-06-30T07:45:42.453Z,24.45
2018-06-30T07:46:43.862Z,24.26
2018-06-30T07:47:45.261Z,24.21
2018-06-30T07:48:46.671Z,24.05
2018-06-30T07:49:48.107Z,24.29
2018-06-30T07:50:49.507Z,24.60
2018-06-30T07:51:51.501Z,24.63
2018-06-30T07:52:52.900Z,24.44
2018-06-30T07:53:54.315Z,24.51
2018-06-30T07:54:55.705Z,24.66
2018-06-30T07:55:57.106Z,24.89
2018-06-30T07:56:58.513Z,24.83
2018-06-30T07:57:59.903Z,24.59
2018-06-30T07:59:01.863Z,24.24
2018-06-30T08:00:03.260Z,24.30
2018-06-30T08:01:04.656Z,24.33
2018-06-30T08:02:06.065Z,24.06
2018-06-30T08:03:07.448Z,24.08
2018-06-30T08:04:08.849Z,24.34
2018-06-30T08:05:10.250Z,24.31
2018-06-30T08:06:11.653Z,24.24
2018-06-30T08:07:13.078Z,24.06
2018-06-30T08:08:14.475Z,23.81
2018-06-30T08:09:15.873Z,23.67
2018-06-30T08:10:17.286Z,23.31
2018-06-30T08:11:18.691Z,23.11
2018-06-30T08:12:20.102Z,23.00
2018-06-30T08:13:21.494Z,23.01
2018-06-30T08:14:22.895Z,22.72
2018-06-30T08:15:24.313Z,22.48
2018-06-30T08:16:25.695Z,22.21
2018-06-30T08:17:27.097Z,21.91
2018-06-30T08:18:28.474Z,21.86
2018-06-30T08:19:29.880Z,21.85
2018-06-30T08:20:31.286Z,21.73
2018-06-30T08:21:32.670Z,21.83
2018-06-30T08:22:34.078Z,21.89
2018-06-30T08:23:35.469Z,22.17
2018-06-30T08:24:36.874Z,22.27
2018-06-30T08:25:38.279Z,22.24
2018-06-30T08:26:39.691Z,22.26
2018-06-30T08:27:41.089Z,22.36
2018-06-30T08:28:42.504Z,22.41
2018-06-30T08:29:43.902Z,22.57
2018-06-30T08:30:45.318Z,22.59
2018-06-30T08:31:46.715Z,22.46
2018-06-30T08:32:48.150Z,22.33
2018-06-30T08:33:49.533Z,22.20
2018-06-30T08:34:50.929Z,22.05
2018-06-30T08:35:52.317Z,21.91
2018-06-30T08:36:53.720Z,21.90
2018-06-30T08:37:55.130Z,21.75
2018-06-30T08:38:56.532Z,21.90
2018-06-30T08:39:57.924Z,22.08
2018-06-30T08:40:59.324Z,22.20
2018-06-30T08:42:00.726Z,22.06
2018-06-30T08:43:02.131Z,22.09
2018-06-30T08:44:03.527Z,21.99
2018-06-30T08:45:04.947Z,21.98
2018-06-30T08:46:06.337Z,22.29
2018-06-30T08:47:07.743Z,22.45
2018-06-30T08:48:09.139Z,22.59
2018-06-30T08:49:10.526Z,22.67
2018-06-30T08:50:11.922Z,22.81
2018-06-30T08:51:13.847Z,22.94
2018-06-30T08:52:14.683Z,22.96
2018-06-30T08:53:16.081Z,23.07
2018-06-30T08:54:17.477Z,23.11
2018-06-30T08:55:18.896Z,23.22
2018-06-30T08:56:20.259Z,23.04
2018-06-30T08:57:21.687Z,22.96
2018-06-30T08:58:23.087Z,22.81
2018-06-30T08:59:24.479Z,22.66
2018-06-30T09:00:25.871Z,22.51
2018-06-30T09:01:27.289Z,22.30
2018-06-30T09:02:28.675Z,22.27
2018-06-30T09:03:30.086Z,22.29
2018-06-30T09:04:31.475Z,22.15
2018-06-30T09:05:32.874Z,22.15
2018-06-30T09:06:34.336Z,21.99
2018-06-30T09:07:35.685Z,22.04
2018-06-30T09:08:37.094Z,21.89
2018-06-30T09:09:38.492Z,21.86
2018-06-30T09:10:39.960Z,21.71
2018-06-30T09:11:41.296Z,21.71
2018-06-30T09:12:42.687Z,21.61
2018-06-30T09:13:44.083Z,21.43
2018-06-30T09:14:45.479Z,21.30
2018-06-30T09:15:46.884Z,21.13
2018-06-30T09:16:48.294Z,21.13
2018-06-30T09:17:49.685Z,21.08
2018-06-30T09:18:51.082Z,20.98
2018-06-30T09:19:52.487Z,21.08
2018-06-30T09:20:53.881Z,21.01
2018-06-30T09:21:55.287Z,20.94
2018-06-30T09:22:56.687Z,20.98
2018-06-30T09:23:58.073Z,21.05
2018-06-30T09:25:00.053Z,21.15
2018-06-30T09:26:01.451Z,21.46
2018-06-30T09:27:02.848Z,21.67
2018-06-30T09:28:04.246Z,21.75
2018-06-30T09:29:05.632Z,21.90
2018-06-30T09:30:07.040Z,21.98
2018-06-30T09:31:08.441Z,21.99
2018-06-30T09:32:09.823Z,21.98
2018-06-30T09:33:11.238Z,21.91
2018-06-30T09:34:12.629Z,22.02
2018-06-30T09:35:14.034Z,21.96
2018-06-30T09:36:15.426Z,22.06
2018-06-30T09:37:16.819Z,22.09
2018-06-30T09:38:18.223Z,22.12
2018-06-30T09:39:19.629Z,22.14
2018-06-30T09:40:21.022Z,22.12
2018-06-30T09:41:22.427Z,22.02
2018-06-30T09:42:23.827Z,22.09
2018-06-30T09:43:25.227Z,22.05
2018-06-30T09:44:26.656Z,21.94
2018-06-30T09:45:28.017Z,21.91
2018-06-30T09:46:29.413Z,21.90
2018-06-30T09:47:30.810Z,21.75
2018-06-30T09:48:32.200Z,21.75
2018-06-30T09:49:33.597Z,21.73
2018-06-30T09:50:34.990Z,21.59
2018-06-30T09:51:36.393Z,21.64
2018-06-30T09:52:37.781Z,21.66
2018-06-30T09:53:39.174Z,21.59
2018-06-30T09:54:40.567Z,21.68
2018-06-30T09:55:41.951Z,21.43
2018-06-30T09:56:43.365Z,21.30
2018-06-30T09:57:44.763Z,21.34
2018-06-30T09:58:46.167Z,21.43
2018-06-30T09:59:47.563Z,21.70
2018-06-30T10:00:48.942Z,21.86
2018-06-30T10:01:50.342Z,22.14
2018-06-30T10:02:51.737Z,22.41
2018-06-30T10:03:53.131Z,22.63
2018-06-30T10:04:54.523Z,22.66
2018-06-30T10:05:55.920Z,22.85
2018-06-30T10:06:57.371Z,22.72
2018-06-30T10:07:58.674Z,22.64
2018-06-30T10:09:00.065Z,22.61
2018-06-30T10:10:01.466Z,22.51
2018-06-30T10:11:02.862Z,22.42
2018-06-30T10:12:04.258Z,22.29
2018-06-30T10:13:05.654Z,22.26
2018-06-30T10:14:07.056Z,22.39
2018-06-30T10:15:08.451Z,22.31
2018-06-30T10:16:09.836Z,22.26
2018-06-30T10:17:11.232Z,22.14
2018-06-30T10:18:12.628Z,22.15
2018-06-30T10:19:14.077Z,22.09
2018-06-30T10:20:15.429Z,22.06
2018-06-30T10:21:16.877Z,22.11
2018-06-30T10:22:18.186Z,22.05
2018-06-30T10:23:19.589Z,22.19
2018-06-30T10:24:20.977Z,22.15
2018-06-30T10:25:22.373Z,22.24
2018-06-30T10:26:23.779Z,22.24
2018-06-30T10:27:25.180Z,22.17
2018-06-30T10:28:26.580Z,22.31
2018-06-30T10:29:27.989Z,22.27
2018-06-30T10:30:29.427Z,22.26
2018-06-30T10:31:30.823Z,22.19
2018-06-30T10:32:32.223Z,22.30
2018-06-30T10:33:33.615Z,22.21
2018-06-30T10:34:35.019Z,22.27
2018-06-30T10:35:36.406Z,22.26
2018-06-30T10:36:37.812Z,22.26
2018-06-30T10:37:39.203Z,22.26
2018-06-30T10:38:40.619Z,22.27
2018-06-30T10:39:42.005Z,22.38
2018-06-30T10:40:43.400Z,22.57
2018-06-30T10:41:44.803Z,22.64
2018-06-30T10:42:46.204Z,22.51
2018-06-30T10:43:47.609Z,22.51
2018-06-30T10:44:49.005Z,22.52
2018-06-30T10:45:50.396Z,22.44
2018-06-30T10:46:51.792Z,22.49
2018-06-30T10:47:53.194Z,22.63
2018-06-30T10:48:54.589Z,22.72
2018-06-30T10:49:55.982Z,22.86
2018-06-30T10:50:57.385Z,22.94
2018-06-30T10:51:58.783Z,23.03
2018-06-30T10:53:00.172Z,23.11
2018-06-30T10:54:01.573Z,22.96
2018-06-30T10:55:02.971Z,23.07
2018-06-30T10:56:04.362Z,22.82
2018-06-30T10:57:05.766Z,22.66
2018-06-30T10:58:07.174Z,22.57
2018-06-30T10:59:08.564Z,22.56
2018-06-30T11:00:10.005Z,22.41
2018-06-30T11:01:11.355Z,22.21
2018-06-30T11:02:12.745Z,22.24
2018-06-30T11:03:14.153Z,22.19
2018-06-30T11:04:15.607Z,22.19
2018-06-30T11:05:17.002Z,22.20
2018-06-30T11:06:18.291Z,22.14
2018-06-30T11:07:20.575Z,22.29
2018-06-30T11:08:21.965Z,22.14
2018-06-30T11:09:23.362Z,22.12
2018-06-30T11:10:24.767Z,21.98
2018-06-30T11:11:26.148Z,21.85
2018-06-30T11:12:27.539Z,21.90
2018-06-30T11:13:28.943Z,21.94
2018-06-30T11:14:30.337Z,21.86
2018-06-30T11:15:31.740Z,21.79
2018-06-30T11:16:33.135Z,21.89
2018-06-30T11:17:34.559Z,21.75
2018-06-30T11:18:35.931Z,21.63
2018-06-30T11:19:37.330Z,21.66
2018-06-30T11:20:38.728Z,21.68
2018-06-30T11:21:40.121Z,21.66
2018-06-30T11:22:41.518Z,21.70
2018-06-30T11:23:42.921Z,21.70
2018-06-30T11:24:44.329Z,21.83
2018-06-30T11:25:45.734Z,21.74
2018-06-30T11:26:47.142Z,21.77
2018-06-30T11:27:48.538Z,21.91
2018-06-30T11:28:49.932Z,22.26
2018-06-30T11:29:51.346Z,22.39
2018-06-30T11:30:52.751Z,22.54
2018-06-30T11:31:54.159Z,22.69
2018-06-30T11:32:55.555Z,22.94
2018-06-30T11:33:56.958Z,22.86
2018-06-30T11:34:58.356Z,22.96
2018-06-30T11:35:59.754Z,22.81
2018-06-30T11:37:01.148Z,22.85
2018-06-30T11:38:02.543Z,22.85
2018-06-30T11:39:03.934Z,23.03
2018-06-30T11:40:05.343Z,22.99
2018-06-30T11:41:06.754Z,23.12
2018-06-30T11:42:08.153Z,23.11
2018-06-30T11:43:09.544Z,23.11
2018-06-30T11:44:11.590Z,23.23
2018-06-30T11:45:12.990Z,23.12
2018-06-30T11:46:14.380Z,22.96
2018-06-30T11:47:15.791Z,22.57
2018-06-30T11:48:17.203Z,22.38
2018-06-30T11:49:18.587Z,22.21
2018-06-30T11:50:20.037Z,22.04
2018-06-30T11:51:21.381Z,21.89
2018-06-30T11:52:22.776Z,21.81
2018-06-30T11:53:24.167Z,21.81
2018-06-30T11:54:25.570Z,21.89
2018-06-30T11:55:26.980Z,22.38
2018-06-30T11:56:28.380Z,23.12
2018-06-30T11:57:29.767Z,24.12
2018-06-30T11:58:31.167Z,25.01
2018-06-30T11:59:32.569Z,25.30
2018-06-30T12:00:33.966Z,25.79
2018-06-30T12:01:35.369Z,26.41
2018-06-30T12:02:36.776Z,26.76
2018-06-30T12:03:38.188Z,27.63
2018-06-30T12:04:39.568Z,28.32
2018-06-30T12:05:40.967Z,29.02
2018-06-30T12:06:42.365Z,29.70
2018-06-30T12:07:43.765Z,30.28
2018-06-30T12:08:45.170Z,30.75
2018-06-30T12:09:46.564Z,31.13
2018-06-30T12:10:47.975Z,31.25
2018-06-30T12:11:49.379Z,30.98
2018-06-30T12:12:50.781Z,30.25
2018-06-30T12:13:52.176Z,28.74
2018-06-30T12:14:53.579Z,27.76
2018-06-30T12:15:54.975Z,26.94
2018-06-30T12:16:56.380Z,26.35
2018-06-30T12:17:57.777Z,25.81
2018-06-30T12:18:59.175Z,25.48
2018-06-30T12:20:00.567Z,25.04
2018-06-30T12:21:01.972Z,24.89
2018-06-30T12:22:03.369Z,24.68
2018-06-30T12:23:04.787Z,24.64
2018-06-30T12:24:06.190Z,24.31
2018-06-30T12:25:07.593Z,24.41
2018-06-30T12:26:08.990Z,24.49
2018-06-30T12:27:10.394Z,24.70
2018-06-30T12:28:11.787Z,24.92
2018-06-30T12:29:13.198Z,25.20
2018-06-30T12:30:14.605Z,24.87
2018-06-30T12:31:15.996Z,24.63
2018-06-30T12:32:17.438Z,24.42
2018-06-30T12:33:18.781Z,24.09
2018-06-30T12:34:20.172Z,23.84
2018-06-30T12:35:21.580Z,23.90
2018-06-30T12:36:22.984Z,23.82
2018-06-30T12:37:24.387Z,23.47
2018-06-30T12:38:25.785Z,23.39
2018-06-30T12:39:27.177Z,23.44
2018-06-30T12:40:28.584Z,23.47
2018-06-30T12:41:29.971Z,23.53
2018-06-30T12:42:31.364Z,23.45
2018-06-30T12:43:32.757Z,23.69
2018-06-30T12:44:34.157Z,24.04
2018-06-30T12:45:35.556Z,24.59
2018-06-30T12:46:36.955Z,25.01
2018-06-30T12:47:38.350Z,25.19
2018-06-30T12:48:39.741Z,25.35
2018-06-30T12:49:41.144Z,25.27
2018-06-30T12:50:43.390Z,25.17
2018-06-30T12:51:44.788Z,24.97
2018-06-30T12:52:46.180Z,24.63
2018-06-30T12:53:47.576Z,24.44
2018-06-30T12:54:49.032Z,24.33
2018-06-30T12:55:50.374Z,24.18
2018-06-30T12:56:51.766Z,23.90
2018-06-30T12:57:53.160Z,23.84
2018-06-30T12:58:54.552Z,23.71
2018-06-30T12:59:55.951Z,23.56
2018-06-30T13:00:57.346Z,23.32
2018-06-30T13:01:58.750Z,23.23
2018-06-30T13:03:00.137Z,23.01
2018-06-30T13:04:01.539Z,23.01
2018-06-30T13:05:02.929Z,22.96
2018-06-30T13:06:04.322Z,23.04
2018-06-30T13:07:05.721Z,23.01
2018-06-30T13:08:07.116Z,23.14
2018-06-30T13:09:08.555Z,23.23
2018-06-30T13:10:09.906Z,23.22
2018-06-30T13:11:11.310Z,23.23